createdAt,value
2018-06-20T00:00:39.548Z,13.22
2018-06-20T00:03:06.778Z,13.20
2018-06-20T00:05:33.913Z,13.12
2018-06-20T00:08:01.065Z,13.07
2018-06-20T00:10:28.329Z,13.02
2018-06-20T00:12:55.585Z,13.02
2018-06-20T00:15:23.545Z,13.03
2018-06-20T00:17:50.777Z,13.06
2018-06-20T00:20:17.925Z,13.03
2018-06-20T00:22:45.078Z,13.05
2018-06-20T00:25:12.252Z,13.07
2018-06-20T00:27:39.406Z,13.17
2018-06-20T00:30:06.676Z,13.34
2018-06-20T00:32:33.825Z,13.09
2018-06-20T00:35:00.972Z,13.00
2018-06-20T00:37:28.126Z,12.87
2018-06-20T00:39:55.293Z,12.83
2018-06-20T00:42:22.317Z,12.94
2018-06-20T00:44:49.377Z,12.95
2018-06-20T00:47:16.386Z,12.97
2018-06-20T00:49:43.414Z,13.02
2018-06-20T00:52:10.458Z,13.05
2018-06-20T00:54:37.586Z,13.03
2018-06-20T00:57:04.661Z,13.02
2018-06-20T00:59:31.878Z,13.00
2018-06-20T01:01:58.897Z,12.92
2018-06-20T01:04:25.943Z,12.79
2018-06-20T01:06:52.966Z,12.80
2018-06-20T01:09:19.998Z,12.75
2018-06-20T01:11:47.161Z,12.77
2018-06-20T01:14:14.025Z,12.73
2018-06-20T01:16:41.059Z,12.72
2018-06-20T01:19:08.113Z,12.70
2018-06-20T01:21:35.135Z,12.68
2018-06-20T01:24:02.157Z,12.67
2018-06-20T01:26:29.196Z,12.80
2018-06-20T01:28:56.226Z,12.79
2018-06-20T01:31:23.252Z,12.75
2018-06-20T01:33:50.267Z,12.74
2018-06-20T01:36:17.283Z,12.72
2018-06-20T01:38:44.305Z,12.83
2018-06-20T01:41:11.333Z,12.80
2018-06-20T01:43:38.357Z,12.88
2018-06-20T01:46:05.392Z,12.93
2018-06-20T01:48:32.410Z,12.91
2018-06-20T01:50:59.421Z,12.86
2018-06-20T01:53:26.494Z,12.87
2018-06-20T01:55:54.297Z,12.84
2018-06-20T01:58:22.143Z,12.78
2018-06-20T02:00:49.166Z,12.74
2018-06-20T02:03:16.211Z,12.74
2018-06-20T02:05:43.222Z,12.65
2018-06-20T02:08:10.230Z,12.56
2018-06-20T02:10:37.352Z,12.52
2018-06-20T02:13:04.406Z,12.58
2018-06-20T02:15:31.433Z,12.48
2018-06-20T02:17:58.469Z,12.40
2018-06-20T02:20:25.474Z,12.41
2018-06-20T02:22:52.485Z,12.38
2018-06-20T02:25:19.529Z,12.33
2018-06-20T02:27:46.563Z,12.25
2018-06-20T02:30:13.566Z,12.19
2018-06-20T02:32:40.593Z,12.14
2018-06-20T02:35:07.643Z,12.24
2018-06-20T02:37:34.731Z,12.25
2018-06-20T02:40:01.762Z,12.52
2018-06-20T02:42:28.891Z,12.59
2018-06-20T02:44:55.890Z,12.78
2018-06-20T02:47:42.848Z,12.73
2018-06-20T02:50:10.719Z,12.51
2018-06-20T02:52:38.082Z,12.48
2018-06-20T02:55:05.054Z,12.57
2018-06-20T02:57:32.250Z,12.67
2018-06-20T02:59:59.919Z,12.73
2018-06-20T03:02:26.948Z,13.03
2018-06-20T03:04:53.951Z,13.05
2018-06-20T03:07:20.964Z,12.77
2018-06-20T03:09:47.989Z,12.92
2018-06-20T03:12:15.034Z,12.90
2018-06-20T03:14:42.067Z,12.95
2018-06-20T03:17:09.095Z,12.70
2018-06-20T03:19:36.149Z,12.75
2018-06-20T03:22:03.169Z,12.62
2018-06-20T03:24:30.181Z,12.50
2018-06-20T03:26:57.229Z,12.49
2018-06-20T03:29:24.275Z,12.45
2018-06-20T03:31:51.286Z,12.44
2018-06-20T03:34:18.606Z,12.58
2018-06-20T03:36:45.630Z,12.60
2018-06-20T03:39:12.661Z,12.73
2018-06-20T03:41:39.929Z,12.65
2018-06-20T03:44:06.942Z,12.56
2018-06-20T03:46:34.371Z,12.57
2018-06-20T03:49:01.393Z,12.58
2018-06-20T03:51:28.391Z,12.57
2018-06-20T03:53:55.414Z,12.71
2018-06-20T03:56:22.666Z,12.69
2018-06-20T03:58:49.681Z,12.61
2018-06-20T04:01:17.222Z,12.64
2018-06-20T04:03:44.418Z,12.63
2018-06-20T04:06:11.542Z,12.68
2018-06-20T04:08:38.549Z,12.71
2018-06-20T04:11:05.581Z,12.80
2018-06-20T04:13:32.604Z,12.88
2018-06-20T04:15:59.637Z,12.97
2018-06-20T04:18:37.114Z,13.04
2018-06-20T04:21:04.128Z,13.13
2018-06-20T04:23:31.139Z,13.23
2018-06-20T04:25:58.172Z,13.34
2018-06-20T04:28:25.168Z,13.41
2018-06-20T04:30:52.294Z,13.49
2018-06-20T04:33:19.489Z,13.58
2018-06-20T04:35:46.492Z,13.67
2018-06-20T04:38:13.521Z,13.74
2018-06-20T04:40:40.545Z,13.86
2018-06-20T04:43:07.575Z,13.93
2018-06-20T04:45:34.610Z,14.01
2018-06-20T04:48:01.625Z,14.06
2018-06-20T04:50:28.682Z,14.18
2018-06-20T04:52:55.712Z,14.26
2018-06-20T04:55:22.757Z,14.26
2018-06-20T04:57:49.785Z,14.39
2018-06-20T05:00:16.811Z,14.50
2018-06-20T05:02:43.869Z,14.58
2018-06-20T05:05:10.988Z,14.67
2018-06-20T05:07:38.010Z,14.80
2018-06-20T05:10:05.049Z,14.86
2018-06-20T05:12:32.089Z,14.95
2018-06-20T05:14:59.145Z,15.14
2018-06-20T05:17:26.197Z,15.21
2018-06-20T05:19:53.218Z,15.28
2018-06-20T05:22:20.253Z,15.42
2018-06-20T05:24:47.263Z,15.58
2018-06-20T05:27:14.410Z,15.63
2018-06-20T05:29:41.423Z,15.76
2018-06-20T05:32:08.555Z,15.92
2018-06-20T05:34:35.590Z,16.06
2018-06-20T05:37:02.624Z,16.15
2018-06-20T05:39:29.657Z,16.27
2018-06-20T05:41:56.726Z,16.34
2018-06-20T05:44:23.750Z,16.41
2018-06-20T05:46:50.784Z,16.50
2018-06-20T05:49:17.818Z,16.57
2018-06-20T05:51:44.890Z,16.76
2018-06-20T05:54:11.909Z,16.92
2018-06-20T05:56:38.932Z,17.06
2018-06-20T05:59:05.969Z,17.24
2018-06-20T06:01:33.060Z,17.39
2018-06-20T06:04:00.064Z,17.46
2018-06-20T06:06:27.116Z,17.68
2018-06-20T06:08:54.426Z,17.80
2018-06-20T06:11:21.593Z,17.93
2018-06-20T06:13:48.708Z,17.99
2018-06-20T06:16:15.730Z,18.12
2018-06-20T06:18:43.565Z,18.22
2018-06-20T06:21:10.702Z,18.29
2018-06-20T06:23:38.029Z,18.35
2018-06-20T06:26:05.086Z,18.44
2018-06-20T06:28:32.109Z,18.49
2018-06-20T06:30:59.476Z,18.51
2018-06-20T06:33:26.507Z,18.63
2018-06-20T06:35:53.765Z,18.75
2018-06-20T06:38:20.809Z,18.83
2018-06-20T06:40:47.856Z,18.96
2018-06-20T06:43:14.881Z,19.21
2018-06-20T06:45:41.929Z,19.17
2018-06-20T06:48:09.833Z,19.06
2018-06-20T06:50:36.842Z,19.31
2018-06-20T06:53:03.891Z,19.31
2018-06-20T06:55:30.960Z,19.29
2018-06-20T06:57:58.545Z,19.24
2018-06-20T07:00:25.792Z,19.31
2018-06-20T07:02:52.829Z,19.44
2018-06-20T07:05:19.852Z,19.50
2018-06-20T07:07:47.340Z,19.54
2018-06-20T07:10:14.360Z,19.51
2018-06-20T07:12:41.427Z,19.76
2018-06-20T07:15:08.476Z,19.85
2018-06-20T07:17:35.542Z,19.78
2018-06-20T07:20:02.596Z,19.66
2018-06-20T07:22:29.625Z,19.61
2018-06-20T07:24:56.760Z,19.83
2018-06-20T07:27:24.198Z,20.10
2018-06-20T07:29:51.397Z,20.18
2018-06-20T07:32:18.747Z,20.25
2018-06-20T07:34:45.846Z,20.18
2018-06-20T07:37:12.870Z,20.05
2018-06-20T07:39:39.897Z,20.17
2018-06-20T07:42:06.914Z,20.23
2018-06-20T07:44:34.046Z,20.56
2018-06-20T07:47:01.379Z,20.63
2018-06-20T07:49:28.701Z,20.37
2018-06-20T07:51:55.939Z,20.57
2018-06-20T07:54:23.001Z,20.65
2018-06-20T07:56:50.333Z,20.67
2018-06-20T07:59:18.357Z,20.83
2018-06-20T08:02:02.937Z,21.02
2018-06-20T08:04:35.651Z,21.06
2018-06-20T08:07:08.338Z,21.16
2018-06-20T08:09:41.029Z,21.20
2018-06-20T08:12:13.857Z,21.08
2018-06-20T08:14:46.766Z,21.05
2018-06-20T08:17:20.111Z,21.36
2018-06-20T08:19:47.149Z,21.39
2018-06-20T08:22:17.791Z,21.20
2018-06-20T08:24:56.885Z,21.10
2018-06-20T08:27:23.942Z,20.93
2018-06-20T08:29:52.065Z,20.98
2018-06-20T08:32:20.583Z,21.22
2018-06-20T08:34:48.662Z,21.18
2018-06-20T08:37:16.646Z,20.98
2018-06-20T08:39:44.423Z,21.28
2018-06-20T08:42:13.291Z,21.41
2018-06-20T08:44:41.226Z,21.53
2018-06-20T08:47:09.107Z,21.48
2018-06-20T08:49:37.059Z,21.54
2018-06-20T08:52:05.999Z,21.53
2018-06-20T08:54:34.695Z,21.79
2018-06-20T08:57:02.580Z,21.76
2018-06-20T08:59:31.275Z,22.15
2018-06-20T09:01:59.662Z,22.13
2018-06-20T09:04:33.629Z,22.07
2018-06-20T09:07:06.995Z,21.88
2018-06-20T09:09:40.973Z,21.66
2018-06-20T09:13:18.270Z,21.61
2018-06-20T09:15:51.768Z,21.70
2018-06-20T09:18:25.305Z,21.87
2018-06-20T09:20:53.823Z,22.09
2018-06-20T09:23:22.339Z,21.98
2018-06-20T09:25:50.463Z,22.34
2018-06-20T09:28:18.718Z,22.58
2018-06-20T09:30:47.035Z,22.54
2018-06-20T09:33:15.185Z,22.58
2018-06-20T09:35:43.273Z,22.51
2018-06-20T09:38:11.613Z,22.65
2018-06-20T09:40:42.033Z,22.79
2018-06-20T09:43:09.341Z,23.13
2018-06-20T09:45:36.596Z,22.88
2018-06-20T09:48:03.650Z,22.86
2018-06-20T09:50:36.584Z,22.70
2018-06-20T09:53:03.638Z,22.82
2018-06-20T09:55:30.701Z,22.71
2018-06-20T09:57:57.752Z,22.98
2018-06-20T10:00:30.624Z,22.59
2018-06-20T10:03:03.360Z,22.68
2018-06-20T10:05:36.054Z,22.80
2018-06-20T10:08:08.673Z,23.00
2018-06-20T10:10:41.654Z,22.86
2018-06-20T10:13:11.811Z,23.00
2018-06-20T10:15:38.863Z,22.87
2018-06-20T10:18:05.917Z,22.67
2018-06-20T10:20:32.948Z,22.98
2018-06-20T10:23:00.405Z,23.01
2018-06-20T10:25:28.793Z,23.04
2018-06-20T10:27:56.359Z,23.12
2018-06-20T10:30:23.827Z,23.35
2018-06-20T10:32:51.500Z,23.25
2018-06-20T10:35:18.613Z,23.33
2018-06-20T10:37:45.709Z,23.68
2018-06-20T10:40:12.786Z,23.48
2018-06-20T10:42:39.880Z,23.29
2018-06-20T10:45:12.702Z,23.43
2018-06-20T10:47:41.905Z,23.42
2018-06-20T10:50:09.860Z,23.24
2018-06-20T10:52:36.898Z,23.09
2018-06-20T10:55:04.058Z,23.14
2018-06-20T10:57:36.854Z,23.12
2018-06-20T11:00:10.235Z,22.92
2018-06-20T11:02:42.949Z,22.89
2018-06-20T11:05:15.866Z,22.86
2018-06-20T11:07:48.585Z,22.73
2018-06-20T11:10:21.609Z,22.91
2018-06-20T11:13:00.160Z,22.96
2018-06-20T11:15:27.583Z,22.93
2018-06-20T11:17:54.609Z,23.04
2018-06-20T11:20:27.366Z,23.29
2018-06-20T11:22:54.802Z,23.14
2018-06-20T11:25:22.183Z,23.24
2018-06-20T11:27:49.311Z,23.71
2018-06-20T11:33:07.065Z,24.04
2018-06-20T11:35:34.096Z,24.01
2018-06-20T11:38:01.260Z,24.19
2018-06-20T11:40:28.434Z,23.98
2018-06-20T11:42:55.582Z,24.25
2018-06-20T11:45:22.713Z,24.19
2018-06-20T11:47:49.793Z,24.28
2018-06-20T11:50:17.918Z,24.33
2018-06-20T11:52:50.574Z,24.01
2018-06-20T11:58:08.462Z,24.00
2018-06-20T12:00:41.204Z,24.29
2018-06-20T12:03:13.918Z,24.40
2018-06-20T12:05:46.779Z,23.95
2018-06-20T12:08:19.474Z,23.81
2018-06-20T12:10:52.382Z,23.96
2018-06-20T12:13:25.201Z,24.04
2018-06-20T12:15:58.138Z,23.89
2018-06-20T12:18:30.846Z,23.99
2018-06-20T12:21:03.682Z,24.15
2018-06-20T12:23:37.287Z,24.50
2018-06-20T12:26:11.049Z,24.45
2018-06-20T12:28:43.762Z,24.33
2018-06-20T12:31:16.552Z,24.54
2018-06-20T12:33:49.204Z,25.02
2018-06-20T12:36:23.249Z,25.28
2018-06-20T12:38:56.496Z,25.47
2018-06-20T12:41:29.403Z,25.45
2018-06-20T12:44:02.219Z,25.82
2018-06-20T12:46:33.588Z,25.16
2018-06-20T12:49:00.689Z,25.62
2018-06-20T12:51:27.805Z,26.03
2018-06-20T12:53:54.907Z,25.58
2018-06-20T12:56:21.979Z,25.72
2018-06-20T12:58:49.103Z,25.81
2018-06-20T13:01:16.247Z,25.44
2018-06-20T13:03:43.375Z,25.07
2018-06-20T13:06:10.476Z,24.82
2018-06-20T13:08:37.667Z,24.74
2018-06-20T13:11:04.875Z,25.38
2018-06-20T13:13:31.939Z,25.44
2018-06-20T13:15:59.038Z,25.59
2018-06-20T13:18:26.131Z,25.28
2018-06-20T13:20:53.269Z,25.36
2018-06-20T13:23:20.635Z,25.63
2018-06-20T13:25:47.720Z,25.79
2018-06-20T13:28:14.822Z,25.97
2018-06-20T13:30:45.772Z,26.44
2018-06-20T13:33:18.539Z,26.43
2018-06-20T13:35:51.305Z,26.31
2018-06-20T13:38:24.039Z,25.73
2018-06-20T13:40:56.809Z,25.37
2018-06-20T13:43:29.439Z,25.22
2018-06-20T13:46:02.211Z,25.98
2018-06-20T13:48:31.650Z,26.25
2018-06-20T13:50:58.750Z,25.69
2018-06-20T13:53:25.862Z,25.47
2018-06-20T13:55:53.958Z,25.53
2018-06-20T13:58:21.030Z,25.90
2018-06-20T14:00:48.441Z,26.17
2018-06-20T14:03:15.873Z,26.49
2018-06-20T14:05:42.989Z,26.49
2018-06-20T14:08:10.137Z,26.21
2018-06-20T14:10:37.196Z,25.89
2018-06-20T14:13:04.282Z,26.14
2018-06-20T14:15:38.450Z,26.28
2018-06-20T14:18:05.532Z,25.66
2018-06-20T14:20:38.831Z,25.83
2018-06-20T14:23:05.883Z,25.79
2018-06-20T14:25:32.971Z,25.86
2018-06-20T14:28:00.096Z,25.57
2018-06-20T14:30:32.806Z,25.54
2018-06-20T14:33:05.750Z,25.40
2018-06-20T14:35:38.430Z,25.24
2018-06-20T14:38:11.204Z,25.41
2018-06-20T14:40:44.032Z,25.46
2018-06-20T14:43:16.978Z,25.77
2018-06-20T14:45:49.796Z,26.52
2018-06-20T14:48:16.863Z,26.79
2018-06-20T14:50:43.942Z,26.96
2018-06-20T14:53:11.002Z,27.13
2018-06-20T14:55:38.119Z,27.09
2018-06-20T14:58:05.251Z,27.13
2018-06-20T15:00:32.325Z,27.08
2018-06-20T15:02:59.458Z,27.20
2018-06-20T15:05:26.609Z,26.74
2018-06-20T15:07:53.669Z,26.72
2018-06-20T15:10:20.768Z,26.65
2018-06-20T15:12:47.878Z,26.82
2018-06-20T15:15:14.929Z,26.78
2018-06-20T15:17:41.998Z,26.95
2018-06-20T15:20:09.200Z,26.95
2018-06-20T15:22:41.963Z,26.89
2018-06-20T15:25:09.316Z,26.90
2018-06-20T15:27:41.964Z,26.89
2018-06-20T15:30:14.675Z,26.52
2018-06-20T15:32:47.525Z,26.62
2018-06-20T15:35:20.307Z,26.72
2018-06-20T15:37:52.957Z,26.73
2018-06-20T15:40:20.001Z,26.56
2018-06-20T15:42:47.101Z,26.61
2018-06-20T15:45:14.134Z,26.44
2018-06-20T15:47:41.200Z,26.27
2018-06-20T15:50:08.289Z,26.35
2018-06-20T15:52:35.605Z,26.01
2018-06-20T15:55:02.784Z,25.80
2018-06-20T15:57:29.870Z,26.09
2018-06-20T15:59:56.953Z,26.37
2018-06-20T16:02:24.088Z,26.62
2018-06-20T16:04:51.145Z,26.75
2018-06-20T16:07:18.207Z,26.86
2018-06-20T16:09:51.698Z,26.55
2018-06-20T16:12:18.737Z,26.44
2018-06-20T16:14:45.816Z,26.02
2018-06-20T16:17:12.954Z,25.94
2018-06-20T16:19:45.626Z,25.87
2018-06-20T16:22:18.318Z,25.76
2018-06-20T16:24:51.117Z,25.60
2018-06-20T16:27:24.109Z,25.44
2018-06-20T16:29:56.762Z,25.50
2018-06-20T16:32:23.993Z,25.38
2018-06-20T16:34:51.051Z,25.33
2018-06-20T16:37:18.425Z,25.40
2018-06-20T16:39:45.457Z,25.49
2018-06-20T16:42:12.865Z,25.67
2018-06-20T16:44:39.901Z,26.01
2018-06-20T16:47:07.030Z,26.04
2018-06-20T16:49:34.094Z,26.04
2018-06-20T16:52:01.601Z,25.94
2018-06-20T16:54:28.649Z,25.65
2018-06-20T16:56:55.665Z,25.63
2018-06-20T16:59:22.719Z,25.57
2018-06-20T17:01:56.009Z,25.65
2018-06-20T17:04:23.032Z,25.72
2018-06-20T17:06:50.694Z,25.72
2018-06-20T17:09:18.086Z,25.60
2018-06-20T17:11:50.973Z,25.37
2018-06-20T17:14:23.670Z,25.34
2018-06-20T17:16:56.428Z,25.34
2018-06-20T17:19:29.353Z,25.32
2018-06-20T17:22:02.193Z,25.20
2018-06-20T17:24:35.292Z,25.12
2018-06-20T17:27:02.742Z,24.99
2018-06-20T17:29:29.847Z,24.99
2018-06-20T17:31:56.850Z,24.92
2018-06-20T17:34:23.921Z,25.01
2018-06-20T17:36:50.944Z,25.09
2018-06-20T17:39:18.323Z,25.07
2018-06-20T17:41:45.469Z,25.13
2018-06-20T17:44:12.549Z,25.18
2018-06-20T17:46:39.621Z,25.22
2018-06-20T17:49:06.679Z,25.19
2018-06-20T17:51:33.698Z,25.14
2018-06-20T17:54:00.716Z,25.09
2018-06-20T17:56:27.767Z,25.10
2018-06-20T17:58:54.904Z,25.01
2018-06-20T18:01:21.954Z,24.93
2018-06-20T18:03:49.488Z,24.86
2018-06-20T18:06:22.174Z,24.89
2018-06-20T18:08:54.881Z,24.85
2018-06-20T18:11:27.750Z,24.89
2018-06-20T18:14:00.547Z,24.88
2018-06-20T18:16:33.173Z,24.84
2018-06-20T18:19:00.217Z,24.78
2018-06-20T18:21:27.474Z,24.73
2018-06-20T18:23:54.505Z,24.73
2018-06-20T18:26:21.914Z,24.77
2018-06-20T18:28:48.911Z,24.64
2018-06-20T18:31:15.940Z,24.49
2018-06-20T18:33:42.979Z,24.18
2018-06-20T18:36:10.028Z,24.09
2018-06-20T18:38:37.090Z,23.92
2018-06-20T18:41:04.148Z,23.77
2018-06-20T18:43:31.170Z,23.57
2018-06-20T18:45:58.227Z,23.42
2018-06-20T18:48:25.965Z,23.38
2018-06-20T18:50:53.213Z,23.24
2018-06-20T18:53:20.405Z,23.15
2018-06-20T18:55:47.941Z,23.04
2018-06-20T18:58:20.686Z,23.07
2018-06-20T19:00:54.067Z,22.89
2018-06-20T19:03:27.142Z,22.78
2018-06-20T19:05:59.997Z,22.73
2018-06-20T19:08:32.983Z,22.63
2018-06-20T19:11:00.578Z,22.48
2018-06-20T19:13:27.604Z,22.44
2018-06-20T19:15:55.264Z,22.33
2018-06-20T19:18:22.294Z,22.22
2018-06-20T19:20:49.314Z,22.06
2018-06-20T19:23:16.963Z,21.95
2018-06-20T19:25:43.980Z,21.87
2018-06-20T19:28:11.013Z,21.77
2018-06-20T19:30:38.491Z,21.65
2018-06-20T19:33:05.519Z,21.59
2018-06-20T19:35:32.545Z,21.50
2018-06-20T19:37:59.589Z,21.40
2018-06-20T19:40:26.980Z,21.30
2018-06-20T19:42:54.021Z,21.40
2018-06-20T19:45:21.883Z,21.14
2018-06-20T19:47:48.954Z,21.06
2018-06-20T19:50:15.977Z,20.96
2018-06-20T19:52:43.313Z,20.87
2018-06-20T19:55:10.343Z,20.89
2018-06-20T19:57:37.392Z,20.78
2018-06-20T20:00:04.829Z,20.70
2018-06-20T20:02:31.906Z,20.64
2018-06-20T20:04:59.386Z,20.52
2018-06-20T20:07:26.571Z,20.36
2018-06-20T20:09:53.799Z,20.30
2018-06-20T20:12:21.117Z,20.18
2018-06-20T20:14:48.448Z,20.06
2018-06-20T20:17:15.467Z,20.01
2018-06-20T20:19:42.646Z,19.94
2018-06-20T20:22:09.691Z,19.89
2018-06-20T20:24:36.754Z,19.72
2018-06-20T20:27:04.011Z,19.65
2018-06-20T20:29:31.037Z,19.65
2018-06-20T20:31:58.124Z,19.66
2018-06-20T20:34:25.148Z,19.49
2018-06-20T20:36:52.193Z,19.42
2018-06-20T20:39:19.225Z,19.39
2018-06-20T20:41:46.661Z,19.42
2018-06-20T20:44:13.940Z,19.25
2018-06-20T20:46:41.128Z,19.30
2018-06-20T20:49:08.560Z,19.28
2018-06-20T20:51:35.630Z,19.24
2018-06-20T20:54:03.102Z,19.10
2018-06-20T20:56:30.179Z,19.04
2018-06-20T20:58:57.273Z,18.95
2018-06-20T21:01:24.515Z,18.86
2018-06-20T21:03:51.551Z,18.83
2018-06-20T21:06:18.670Z,18.75
2018-06-20T21:08:45.618Z,18.76
2018-06-20T21:11:12.794Z,18.79
2018-06-20T21:13:40.127Z,18.76
2018-06-20T21:16:07.476Z,18.69
2018-06-20T21:18:34.773Z,18.63
2018-06-20T21:21:01.838Z,18.59
2018-06-20T21:23:29.052Z,18.50
2018-06-20T21:25:56.114Z,18.49
2018-06-20T21:28:23.185Z,18.39
2018-06-20T21:30:50.229Z,18.38
2018-06-20T21:33:17.247Z,18.41
2018-06-20T21:35:44.509Z,18.28
2018-06-20T21:38:11.977Z,18.23
2018-06-20T21:40:39.001Z,18.27
2018-06-20T21:43:06.031Z,18.24
2018-06-20T21:45:33.044Z,18.18
2018-06-20T21:48:00.093Z,18.13
2018-06-20T21:50:27.596Z,18.00
2018-06-20T21:52:54.677Z,17.97
2018-06-20T21:55:22.657Z,17.92
2018-06-20T21:57:49.749Z,17.88
2018-06-20T22:00:16.786Z,17.86
2018-06-20T22:02:44.168Z,17.78
2018-06-20T22:05:11.196Z,17.73
2018-06-20T22:07:38.214Z,17.73
2018-06-20T22:10:05.953Z,17.69
2018-06-20T22:12:33.090Z,17.65
2018-06-20T22:15:00.410Z,17.62
2018-06-20T22:17:27.734Z,17.58
2018-06-20T22:19:55.103Z,17.59
2018-06-20T22:22:22.132Z,17.54
2018-06-20T22:24:49.242Z,17.52
2018-06-20T22:27:16.629Z,17.53
2018-06-20T22:29:43.717Z,17.53
2018-06-20T22:32:10.838Z,17.52
2018-06-20T22:34:37.941Z,17.52
2018-06-20T22:37:05.230Z,17.53
2018-06-20T22:39:32.543Z,17.49
2018-06-20T22:41:59.994Z,17.44
2018-06-20T22:44:27.558Z,17.46
2018-06-20T22:46:54.647Z,17.44
2018-06-20T22:49:21.922Z,17.43
2018-06-20T22:51:49.179Z,17.41
2018-06-20T22:54:16.554Z,17.38
2018-06-20T22:56:44.043Z,17.33
2018-06-20T22:59:11.839Z,17.30
2018-06-20T23:01:39.158Z,17.26
2018-06-20T23:04:06.672Z,17.24
2018-06-20T23:06:33.923Z,17.23
2018-06-20T23:09:01.186Z,17.13
2018-06-20T23:11:33.088Z,17.17
2018-06-20T23:14:00.431Z,17.19
2018-06-20T23:16:27.718Z,17.14
2018-06-20T23:18:54.973Z,17.11
2018-06-20T23:21:22.253Z,17.08
2018-06-20T23:23:49.406Z,17.06
2018-06-20T23:26:16.606Z,17.06
2018-06-20T23:28:43.726Z,17.05
2018-06-20T23:31:11.102Z,16.99
2018-06-20T23:33:38.381Z,16.96
2018-06-20T23:36:05.594Z,16.95
2018-06-20T23:38:32.679Z,16.93
2018-06-20T23:41:00.043Z,16.92
2018-06-20T23:43:27.198Z,16.89
2018-06-20T23:45:54.482Z,16.87
2018-06-20T23:48:21.861Z,16.85
2018-06-20T23:50:49.189Z,16.83
2018-06-20T23:53:16.540Z,16.81
2018-06-20T23:55:43.804Z,16.82
2018-06-20T23:58:11.168Z,16.82
